ABY227 OMSJ-LOWW
Flight info
| Callsign | ABY227 |
|---|---|
| Flight time | N/A |
| Altitude | 34000 |
| Route | RIDAP M557 TUMAK L602 GADSI M860 TOMSI/N0452F360 M860 NINVA UM860 ODALI UL852 NEGEM L852 KOMAN DCT DEGET DCT BALUX DCT TORNO DCT NATEX NATEX2W |
| Aircraft | A21N/M-SDE2E3FGHIRWXY/LB1 |
Departure
| Time | 2026-04-26 13:27 |
|---|---|
| Airport | Sharjah International Airport (OMSJ) |
Arrival
| Time | N/A |
|---|---|
| Airport | Vienna International Airport (LOWW) |
| Time | Latitude | Longitude | Altitude | Speed | Heading |
|---|---|---|---|---|---|
| 2026-04-26 13:27 | 25.37982 | 55.34223 | 4105 ft | 265 kts | 267° |
| 2026-04-26 13:27 | 25.37840 | 55.32186 | 4674 ft | 266 kts | 267° |
| 2026-04-26 13:28 | 25.37697 | 55.30169 | 5255 ft | 266 kts | 267° |
| 2026-04-26 13:28 | 25.37550 | 55.28123 | 5841 ft | 267 kts | 267° |
| 2026-04-26 13:28 | 25.37401 | 55.26074 | 6436 ft | 268 kts | 267° |
| 2026-04-26 13:28 | 25.37253 | 55.24012 | 7017 ft | 270 kts | 267° |
| 2026-04-26 13:29 | 25.37213 | 55.21931 | 7549 ft | 271 kts | 274° |
| 2026-04-26 13:29 | 25.37300 | 55.20551 | 7891 ft | 272 kts | 276° |
| 2026-04-26 13:29 | 25.37534 | 55.17744 | 8563 ft | 275 kts | 276° |
| 2026-04-26 13:29 | 25.37735 | 55.15628 | 9062 ft | 278 kts | 277° |
| 2026-04-26 13:30 | 25.37946 | 55.13494 | 9571 ft | 280 kts | 277° |
| 2026-04-26 13:30 | 25.38160 | 55.11366 | 10050 ft | 284 kts | 276° |
| 2026-04-26 13:30 | 25.38387 | 55.09127 | 10263 ft | 299 kts | 276° |
| 2026-04-26 13:30 | 25.38626 | 55.06783 | 10459 ft | 313 kts | 276° |
| 2026-04-26 13:31 | 25.38874 | 55.04339 | 10651 ft | 325 kts | 276° |
| 2026-04-26 13:31 | 25.39133 | 55.01803 | 10849 ft | 339 kts | 276° |
| 2026-04-26 13:31 | 25.39396 | 54.99182 | 11088 ft | 347 kts | 276° |
| 2026-04-26 13:31 | 25.39670 | 54.96505 | 11444 ft | 352 kts | 276° |
| 2026-04-26 13:32 | 25.39949 | 54.93801 | 11877 ft | 356 kts | 276° |
| 2026-04-26 13:32 | 25.40230 | 54.91081 | 12330 ft | 357 kts | 275° |
| 2026-04-26 13:32 | 25.40502 | 54.88337 | 12767 ft | 359 kts | 275° |
| 2026-04-26 13:32 | 25.40771 | 54.85583 | 13248 ft | 362 kts | 275° |
| 2026-04-26 13:33 | 25.41050 | 54.82807 | 13772 ft | 363 kts | 275° |
| 2026-04-26 13:33 | 25.41327 | 54.80060 | 14263 ft | 365 kts | 275° |
| 2026-04-26 13:33 | 25.41609 | 54.77259 | 14705 ft | 368 kts | 275° |
| 2026-04-26 13:33 | 25.41891 | 54.74435 | 15181 ft | 370 kts | 275° |
| 2026-04-26 13:34 | 25.42176 | 54.71599 | 15684 ft | 371 kts | 275° |
| 2026-04-26 13:34 | 25.42459 | 54.68754 | 16137 ft | 373 kts | 275° |
| 2026-04-26 13:34 | 25.42741 | 54.65895 | 16568 ft | 376 kts | 275° |
| 2026-04-26 13:34 | 25.42931 | 54.63985 | 16843 ft | 377 kts | 275° |
| 2026-04-26 13:35 | 25.43583 | 54.60152 | 17408 ft | 381 kts | 283° |
| 2026-04-26 13:35 | 25.44310 | 54.57325 | 17795 ft | 384 kts | 285° |
| 2026-04-26 13:35 | 25.45141 | 54.54499 | 18172 ft | 385 kts | 286° |
| 2026-04-26 13:35 | 25.46011 | 54.51689 | 18534 ft | 387 kts | 287° |
| 2026-04-26 13:36 | 25.46891 | 54.48867 | 18890 ft | 389 kts | 287° |
| 2026-04-26 13:36 | 25.47765 | 54.46029 | 19222 ft | 390 kts | 286° |
| 2026-04-26 13:36 | 25.48630 | 54.43175 | 19532 ft | 392 kts | 286° |
| 2026-04-26 13:36 | 25.49477 | 54.40343 | 19856 ft | 394 kts | 285° |
| 2026-04-26 13:37 | 25.50331 | 54.37459 | 20179 ft | 395 kts | 285° |
| 2026-04-26 13:37 | 25.51185 | 54.34557 | 20480 ft | 397 kts | 285° |
| 2026-04-26 13:37 | 25.52040 | 54.31643 | 20786 ft | 399 kts | 285° |
| 2026-04-26 13:37 | 25.52899 | 54.28716 | 21108 ft | 401 kts | 285° |
| 2026-04-26 13:38 | 25.53762 | 54.25775 | 21423 ft | 402 kts | 285° |
| 2026-04-26 13:38 | 25.54629 | 54.22824 | 21751 ft | 404 kts | 285° |
| 2026-04-26 13:38 | 25.55498 | 54.19862 | 22064 ft | 406 kts | 285° |
| 2026-04-26 13:38 | 25.56372 | 54.16882 | 22385 ft | 407 kts | 285° |
| 2026-04-26 13:39 | 25.57250 | 54.13888 | 22727 ft | 409 kts | 285° |
| 2026-04-26 13:39 | 25.58129 | 54.10887 | 23015 ft | 411 kts | 285° |
| 2026-04-26 13:39 | 25.59013 | 54.07867 | 23292 ft | 413 kts | 285° |
| 2026-04-26 13:39 | 25.59893 | 54.04828 | 23582 ft | 415 kts | 285° |
| 2026-04-26 13:40 | 25.60767 | 54.01774 | 23903 ft | 416 kts | 284° |
| 2026-04-26 13:40 | 25.61640 | 53.98711 | 24190 ft | 418 kts | 284° |
| 2026-04-26 13:40 | 25.62516 | 53.95626 | 24451 ft | 420 kts | 284° |
| 2026-04-26 13:40 | 25.63396 | 53.92529 | 24767 ft | 421 kts | 284° |
| 2026-04-26 13:41 | 25.64276 | 53.89432 | 25073 ft | 422 kts | 284° |
| 2026-04-26 13:41 | 25.65152 | 53.86355 | 25363 ft | 423 kts | 284° |
| 2026-04-26 13:41 | 25.66036 | 53.83243 | 25647 ft | 424 kts | 284° |
| 2026-04-26 13:41 | 25.66923 | 53.80117 | 25894 ft | 426 kts | 284° |
| 2026-04-26 13:42 | 25.67815 | 53.76977 | 26181 ft | 428 kts | 284° |
| 2026-04-26 13:42 | 25.68708 | 53.73829 | 26435 ft | 428 kts | 284° |
| 2026-04-26 13:42 | 25.69599 | 53.70671 | 26656 ft | 430 kts | 284° |
| 2026-04-26 13:42 | 25.70492 | 53.67505 | 26886 ft | 431 kts | 284° |
| 2026-04-26 13:43 | 25.71387 | 53.64328 | 27103 ft | 432 kts | 284° |
| 2026-04-26 13:43 | 25.72282 | 53.61138 | 27337 ft | 433 kts | 284° |
| 2026-04-26 13:43 | 25.73178 | 53.57941 | 27548 ft | 435 kts | 284° |
| 2026-04-26 13:43 | 25.74076 | 53.54735 | 27834 ft | 434 kts | 284° |
| 2026-04-26 13:44 | 25.74968 | 53.51549 | 28167 ft | 432 kts | 284° |
| 2026-04-26 13:44 | 25.75858 | 53.48374 | 28494 ft | 430 kts | 284° |
| 2026-04-26 13:44 | 25.76747 | 53.45208 | 28780 ft | 429 kts | 284° |
| 2026-04-26 13:44 | 25.77633 | 53.42049 | 29088 ft | 428 kts | 284° |
| 2026-04-26 13:45 | 25.78518 | 53.38897 | 29365 ft | 427 kts | 284° |
| 2026-04-26 13:45 | 25.79398 | 53.35757 | 29655 ft | 426 kts | 284° |
| 2026-04-26 13:45 | 25.80276 | 53.32620 | 29917 ft | 425 kts | 284° |
| 2026-04-26 13:45 | 25.81149 | 53.29495 | 30203 ft | 424 kts | 284° |
| 2026-04-26 13:46 | 25.82021 | 53.26376 | 30477 ft | 422 kts | 284° |
| 2026-04-26 13:46 | 25.82888 | 53.23268 | 30801 ft | 420 kts | 285° |
| 2026-04-26 13:46 | 25.83755 | 53.20190 | 31132 ft | 417 kts | 287° |
| 2026-04-26 13:46 | 25.84809 | 53.17200 | 31460 ft | 415 kts | 290° |
| 2026-04-26 13:47 | 25.85946 | 53.14265 | 31775 ft | 412 kts | 291° |
| 2026-04-26 13:47 | 25.87105 | 53.11364 | 32068 ft | 410 kts | 292° |
| 2026-04-26 13:47 | 25.88275 | 53.08485 | 32338 ft | 408 kts | 292° |
| 2026-04-26 13:47 | 25.89447 | 53.05624 | 32609 ft | 405 kts | 292° |
| 2026-04-26 13:48 | 25.90615 | 53.02779 | 32862 ft | 404 kts | 292° |
| 2026-04-26 13:48 | 25.91757 | 52.99983 | 33116 ft | 401 kts | 292° |
| 2026-04-26 13:48 | 25.92905 | 52.97167 | 33363 ft | 399 kts | 292° |
| 2026-04-26 13:48 | 25.94046 | 52.94359 | 33593 ft | 397 kts | 292° |
| 2026-04-26 13:49 | 25.95176 | 52.91573 | 33823 ft | 395 kts | 292° |
| 2026-04-26 13:49 | 25.97054 | 52.86929 | 33909 ft | 396 kts | 292° |
| 2026-04-26 13:50 | 25.99306 | 52.81363 | 33909 ft | 394 kts | 292° |
| 2026-04-26 13:50 | 26.01554 | 52.75805 | 33904 ft | 394 kts | 292° |
| 2026-04-26 13:51 | 26.03928 | 52.70316 | 33905 ft | 394 kts | 294° |
| 2026-04-26 13:51 | 26.06396 | 52.64883 | 33904 ft | 393 kts | 294° |
| 2026-04-26 13:52 | 26.08864 | 52.59456 | 33906 ft | 393 kts | 294° |
| 2026-04-26 13:52 | 26.11315 | 52.54025 | 33906 ft | 393 kts | 294° |
| 2026-04-26 13:53 | 26.13767 | 52.48588 | 33907 ft | 393 kts | 294° |
| 2026-04-26 13:53 | 26.16217 | 52.43142 | 33906 ft | 393 kts | 294° |
| 2026-04-26 13:54 | 26.18653 | 52.37733 | 33906 ft | 392 kts | 294° |
| 2026-04-26 13:54 | 26.21096 | 52.32298 | 33905 ft | 392 kts | 294° |
| 2026-04-26 13:55 | 26.24283 | 52.25045 | 33906 ft | 392 kts | 293° |
| 2026-04-26 13:56 | 26.28227 | 52.15909 | 33905 ft | 392 kts | 293° |
| 2026-04-26 13:56 | 26.30590 | 52.10434 | 33907 ft | 392 kts | 293° |
| 2026-04-26 13:57 | 26.32955 | 52.04957 | 33904 ft | 392 kts | 293° |
| 2026-04-26 13:57 | 26.35318 | 51.99484 | 33904 ft | 392 kts | 293° |
| 2026-04-26 13:58 | 26.37587 | 51.94010 | 33906 ft | 391 kts | 290° |
| 2026-04-26 13:58 | 26.39562 | 51.88351 | 33905 ft | 391 kts | 289° |
| 2026-04-26 13:59 | 26.41470 | 51.82678 | 33911 ft | 391 kts | 288° |
| 2026-04-26 13:59 | 26.43367 | 51.76990 | 33905 ft | 391 kts | 288° |
| 2026-04-26 14:00 | 26.47166 | 51.65626 | 33904 ft | 390 kts | 288° |
| 2026-04-26 14:01 | 26.49062 | 51.59949 | 33914 ft | 390 kts | 288° |
| 2026-04-26 14:01 | 26.50947 | 51.54283 | 33915 ft | 389 kts | 288° |
| 2026-04-26 14:02 | 26.52829 | 51.48614 | 33916 ft | 389 kts | 288° |
| 2026-04-26 14:02 | 26.54713 | 51.42939 | 33916 ft | 390 kts | 288° |
| 2026-04-26 14:03 | 26.56593 | 51.37265 | 33916 ft | 389 kts | 288° |
| 2026-04-26 14:03 | 26.58470 | 51.31595 | 33915 ft | 389 kts | 288° |
| 2026-04-26 14:04 | 26.60345 | 51.25930 | 33916 ft | 388 kts | 288° |
| 2026-04-26 14:04 | 26.62208 | 51.20305 | 33915 ft | 389 kts | 288° |
| 2026-04-26 14:05 | 26.64081 | 51.14644 | 33916 ft | 389 kts | 288° |
| 2026-04-26 14:05 | 26.65954 | 51.08972 | 33915 ft | 389 kts | 288° |
| 2026-04-26 14:06 | 26.67823 | 51.03302 | 33916 ft | 389 kts | 288° |
| 2026-04-26 14:06 | 26.69670 | 50.97626 | 33916 ft | 388 kts | 287° |
| 2026-04-26 14:07 | 26.71490 | 50.91940 | 33915 ft | 388 kts | 287° |
| 2026-04-26 14:07 | 26.73302 | 50.86259 | 33916 ft | 388 kts | 287° |
| 2026-04-26 14:08 | 26.75114 | 50.80574 | 33916 ft | 388 kts | 287° |
| 2026-04-26 14:08 | 26.76927 | 50.74889 | 33916 ft | 388 kts | 287° |
| 2026-04-26 14:09 | 26.78738 | 50.69198 | 33916 ft | 388 kts | 288° |
| 2026-04-26 14:09 | 26.81206 | 50.63801 | 33915 ft | 394 kts | 301° |
| 2026-04-26 14:10 | 26.84555 | 50.58894 | 33887 ft | 397 kts | 303° |
| 2026-04-26 14:10 | 26.88043 | 50.54134 | 33885 ft | 398 kts | 304° |
| 2026-04-26 14:11 | 26.93421 | 50.47027 | 33888 ft | 400 kts | 307° |
| 2026-04-26 14:11 | 26.97245 | 50.42482 | 33886 ft | 402 kts | 308° |
| 2026-04-26 14:12 | 27.01119 | 50.37953 | 33885 ft | 402 kts | 307° |
| 2026-04-26 14:12 | 27.04968 | 50.33406 | 33907 ft | 402 kts | 307° |
| 2026-04-26 14:13 | 27.10677 | 50.26534 | 33916 ft | 401 kts | 307° |
| 2026-04-26 14:14 | 27.14463 | 50.21953 | 33915 ft | 401 kts | 307° |
| 2026-04-26 14:14 | 27.18728 | 50.17818 | 33916 ft | 408 kts | 315° |
| 2026-04-26 14:15 | 27.23290 | 50.13978 | 33916 ft | 410 kts | 316° |
| 2026-04-26 14:15 | 27.27902 | 50.10196 | 33893 ft | 411 kts | 316° |
| 2026-04-26 14:16 | 27.32499 | 50.06423 | 33897 ft | 412 kts | 316° |
| 2026-04-26 14:16 | 27.37103 | 50.02593 | 33898 ft | 411 kts | 315° |
| 2026-04-26 14:17 | 27.41616 | 49.98653 | 33899 ft | 410 kts | 314° |
| 2026-04-26 14:17 | 27.46105 | 49.94676 | 33896 ft | 411 kts | 314° |
| 2026-04-26 14:18 | 27.50607 | 49.90696 | 33905 ft | 411 kts | 314° |
| 2026-04-26 14:18 | 27.55105 | 49.86728 | 33897 ft | 410 kts | 314° |
| 2026-04-26 14:19 | 27.59603 | 49.82762 | 33906 ft | 411 kts | 314° |
| 2026-04-26 14:19 | 27.64102 | 49.78790 | 33906 ft | 410 kts | 314° |
| 2026-04-26 14:20 | 27.68596 | 49.74816 | 33926 ft | 411 kts | 314° |
| 2026-04-26 14:20 | 27.73093 | 49.70834 | 33924 ft | 411 kts | 314° |
| 2026-04-26 14:21 | 27.77595 | 49.66845 | 33925 ft | 411 kts | 314° |
| 2026-04-26 14:21 | 27.82089 | 49.62846 | 33924 ft | 411 kts | 314° |
| 2026-04-26 14:22 | 27.86581 | 49.58832 | 33924 ft | 411 kts | 314° |
| 2026-04-26 14:22 | 27.91069 | 49.54819 | 33928 ft | 411 kts | 314° |
| 2026-04-26 14:23 | 27.95525 | 49.50833 | 33933 ft | 411 kts | 314° |
| 2026-04-26 14:23 | 28.00007 | 49.46821 | 33933 ft | 411 kts | 314° |
| 2026-04-26 14:24 | 28.04488 | 49.42787 | 33935 ft | 411 kts | 313° |
| 2026-04-26 14:24 | 28.08947 | 49.38724 | 33952 ft | 411 kts | 313° |
| 2026-04-26 14:25 | 28.13395 | 49.34657 | 33947 ft | 411 kts | 313° |
| 2026-04-26 14:25 | 28.17836 | 49.30594 | 33916 ft | 411 kts | 313° |
| 2026-04-26 14:26 | 28.22286 | 49.26519 | 33917 ft | 411 kts | 313° |
| 2026-04-26 14:26 | 28.26741 | 49.22439 | 33916 ft | 411 kts | 313° |
| 2026-04-26 14:27 | 28.31192 | 49.18362 | 33915 ft | 411 kts | 313° |
| 2026-04-26 14:27 | 28.35611 | 49.14310 | 33924 ft | 411 kts | 313° |
| 2026-04-26 14:28 | 28.40167 | 49.10274 | 33916 ft | 415 kts | 316° |
| 2026-04-26 14:28 | 28.44929 | 49.06538 | 33916 ft | 416 kts | 317° |
| 2026-04-26 14:29 | 28.49708 | 49.02877 | 33916 ft | 417 kts | 317° |
| 2026-04-26 14:29 | 28.54563 | 48.99166 | 33916 ft | 418 kts | 317° |
| 2026-04-26 14:30 | 28.59381 | 48.95470 | 33916 ft | 418 kts | 317° |
| 2026-04-26 14:30 | 28.64204 | 48.91769 | 33916 ft | 418 kts | 317° |
| 2026-04-26 14:31 | 28.68986 | 48.88087 | 33915 ft | 418 kts | 317° |
| 2026-04-26 14:31 | 28.73797 | 48.84376 | 33916 ft | 417 kts | 317° |
| 2026-04-26 14:32 | 28.78604 | 48.80666 | 33916 ft | 417 kts | 317° |
| 2026-04-26 14:32 | 28.83426 | 48.76953 | 33916 ft | 418 kts | 317° |
| 2026-04-26 14:33 | 28.88263 | 48.73248 | 33915 ft | 419 kts | 317° |
| 2026-04-26 14:33 | 28.93098 | 48.69545 | 33916 ft | 419 kts | 317° |
| 2026-04-26 14:34 | 28.97121 | 48.66461 | 33915 ft | 419 kts | 317° |
| 2026-04-26 14:34 | 29.01951 | 48.62750 | 33916 ft | 419 kts | 317° |
| 2026-04-26 14:35 | 29.07571 | 48.58428 | 33915 ft | 419 kts | 317° |
| 2026-04-26 14:35 | 29.11622 | 48.55307 | 33916 ft | 419 kts | 317° |
| 2026-04-26 14:36 | 29.16456 | 48.51578 | 33916 ft | 419 kts | 317° |
| 2026-04-26 14:36 | 29.21298 | 48.47840 | 33915 ft | 420 kts | 317° |
| 2026-04-26 14:37 | 29.26141 | 48.44100 | 33916 ft | 420 kts | 317° |
| 2026-04-26 14:37 | 29.30955 | 48.40374 | 33915 ft | 420 kts | 317° |
| 2026-04-26 14:38 | 29.35798 | 48.36622 | 33916 ft | 420 kts | 317° |
| 2026-04-26 14:38 | 29.40642 | 48.32866 | 33905 ft | 421 kts | 317° |
| 2026-04-26 14:39 | 29.45563 | 48.29179 | 33909 ft | 425 kts | 320° |
| 2026-04-26 14:39 | 29.50697 | 48.25778 | 33904 ft | 427 kts | 322° |
| 2026-04-26 14:40 | 29.55877 | 48.22443 | 33906 ft | 427 kts | 321° |
| 2026-04-26 14:40 | 29.61049 | 48.19078 | 33904 ft | 427 kts | 321° |
| 2026-04-26 14:41 | 29.66204 | 48.15691 | 33899 ft | 426 kts | 321° |
| 2026-04-26 14:41 | 29.71351 | 48.12287 | 33897 ft | 427 kts | 321° |
| 2026-04-26 14:42 | 29.76506 | 48.08876 | 33899 ft | 427 kts | 321° |
| 2026-04-26 14:42 | 29.81627 | 48.05486 | 33898 ft | 427 kts | 321° |
| 2026-04-26 14:43 | 29.86777 | 48.02072 | 33895 ft | 428 kts | 321° |
| 2026-04-26 14:43 | 29.91938 | 47.98648 | 33886 ft | 427 kts | 321° |
| 2026-04-26 14:44 | 29.97092 | 47.95226 | 33896 ft | 427 kts | 321° |
| 2026-04-26 14:44 | 30.02023 | 47.91521 | 33899 ft | 415 kts | 311° |
| 2026-04-26 14:45 | 30.06019 | 47.86825 | 33896 ft | 408 kts | 304° |
| 2026-04-26 14:45 | 30.09751 | 47.81899 | 33898 ft | 407 kts | 303° |
| 2026-04-26 14:46 | 30.13431 | 47.76922 | 33887 ft | 407 kts | 303° |
| 2026-04-26 14:46 | 30.17121 | 47.71950 | 33895 ft | 407 kts | 303° |
| 2026-04-26 14:47 | 30.20823 | 47.66987 | 33892 ft | 407 kts | 303° |
| 2026-04-26 14:47 | 30.24527 | 47.62029 | 33899 ft | 407 kts | 303° |
| 2026-04-26 14:48 | 30.28202 | 47.57102 | 33887 ft | 407 kts | 303° |
| 2026-04-26 14:48 | 30.31908 | 47.52126 | 33890 ft | 407 kts | 303° |
| 2026-04-26 14:49 | 30.35601 | 47.47160 | 33891 ft | 408 kts | 303° |
| 2026-04-26 14:49 | 30.39300 | 47.42181 | 33885 ft | 408 kts | 303° |
| 2026-04-26 14:50 | 30.43001 | 47.37192 | 33885 ft | 408 kts | 303° |
| 2026-04-26 14:50 | 30.46695 | 47.32207 | 33885 ft | 408 kts | 303° |
| 2026-04-26 14:51 | 30.50388 | 47.27212 | 33885 ft | 408 kts | 303° |
| 2026-04-26 14:51 | 30.54079 | 47.22219 | 33889 ft | 408 kts | 303° |
| 2026-04-26 14:52 | 30.58085 | 47.17499 | 33889 ft | 416 kts | 311° |
| 2026-04-26 14:52 | 30.62556 | 47.13183 | 33888 ft | 419 kts | 313° |
| 2026-04-26 14:53 | 30.67078 | 47.08979 | 33892 ft | 419 kts | 313° |
| 2026-04-26 14:53 | 30.71634 | 47.04752 | 33886 ft | 419 kts | 313° |
| 2026-04-26 14:54 | 30.76190 | 47.00502 | 33893 ft | 419 kts | 313° |
| 2026-04-26 14:54 | 30.80736 | 46.96244 | 33893 ft | 419 kts | 313° |
| 2026-04-26 14:55 | 30.85278 | 46.91980 | 33885 ft | 419 kts | 313° |
| 2026-04-26 14:55 | 30.89817 | 46.87715 | 33888 ft | 419 kts | 313° |
| 2026-04-26 14:56 | 30.94361 | 46.83441 | 33885 ft | 420 kts | 313° |
| 2026-04-26 14:56 | 30.98902 | 46.79162 | 33885 ft | 420 kts | 313° |
| 2026-04-26 14:57 | 31.03422 | 46.74900 | 33885 ft | 420 kts | 313° |
| 2026-04-26 14:57 | 31.07965 | 46.70612 | 33884 ft | 420 kts | 313° |
| 2026-04-26 14:58 | 31.12517 | 46.66311 | 33884 ft | 421 kts | 313° |
| 2026-04-26 14:58 | 31.17075 | 46.61997 | 33889 ft | 421 kts | 313° |
| 2026-04-26 14:59 | 31.21596 | 46.57712 | 33888 ft | 421 kts | 313° |
| 2026-04-26 14:59 | 31.26150 | 46.53389 | 33887 ft | 422 kts | 313° |
| 2026-04-26 15:00 | 31.30707 | 46.49058 | 33878 ft | 422 kts | 313° |
| 2026-04-26 15:00 | 31.35267 | 46.44724 | 33884 ft | 423 kts | 313° |
| 2026-04-26 15:01 | 31.39832 | 46.40374 | 33903 ft | 423 kts | 313° |
| 2026-04-26 15:01 | 31.44402 | 46.36014 | 33923 ft | 424 kts | 313° |
| 2026-04-26 15:02 | 31.48972 | 46.31647 | 33926 ft | 424 kts | 313° |
| 2026-04-26 15:02 | 31.53544 | 46.27271 | 33925 ft | 425 kts | 313° |
| 2026-04-26 15:03 | 31.58123 | 46.22887 | 33924 ft | 425 kts | 313° |
| 2026-04-26 15:03 | 31.62705 | 46.18495 | 33924 ft | 425 kts | 313° |
| 2026-04-26 15:04 | 31.67276 | 46.14109 | 33932 ft | 422 kts | 313° |
| 2026-04-26 15:04 | 31.71783 | 46.09779 | 33928 ft | 421 kts | 313° |
| 2026-04-26 15:05 | 31.76301 | 46.05408 | 33924 ft | 420 kts | 313° |
| 2026-04-26 15:05 | 31.80772 | 46.00990 | 33925 ft | 420 kts | 313° |
| 2026-04-26 15:06 | 31.85236 | 45.96546 | 33925 ft | 420 kts | 313° |
| 2026-04-26 15:06 | 31.89700 | 45.92106 | 33925 ft | 420 kts | 313° |
| 2026-04-26 15:07 | 31.96394 | 45.85448 | 33925 ft | 420 kts | 313° |
| 2026-04-26 15:07 | 32.00862 | 45.80998 | 33925 ft | 420 kts | 313° |
| 2026-04-26 15:08 | 32.05316 | 45.76553 | 33925 ft | 420 kts | 313° |
| 2026-04-26 15:08 | 32.09779 | 45.72094 | 33925 ft | 420 kts | 313° |
| 2026-04-26 15:09 | 32.14215 | 45.67658 | 33925 ft | 421 kts | 313° |
| 2026-04-26 15:09 | 32.18674 | 45.63195 | 33925 ft | 420 kts | 313° |
| 2026-04-26 15:10 | 32.22408 | 45.59452 | 33915 ft | 420 kts | 313° |
| 2026-04-26 15:10 | 32.27589 | 45.54252 | 33916 ft | 420 kts | 313° |
| 2026-04-26 15:11 | 32.32039 | 45.49777 | 33916 ft | 420 kts | 313° |
| 2026-04-26 15:11 | 32.36497 | 45.45289 | 33915 ft | 420 kts | 313° |
| 2026-04-26 15:12 | 32.40946 | 45.40803 | 33916 ft | 420 kts | 313° |
| 2026-04-26 15:12 | 32.45389 | 45.36319 | 33916 ft | 420 kts | 313° |
| 2026-04-26 15:13 | 32.49832 | 45.31831 | 33917 ft | 420 kts | 313° |
| 2026-04-26 15:13 | 32.54286 | 45.27347 | 33917 ft | 422 kts | 316° |
| 2026-04-26 15:14 | 32.59103 | 45.23302 | 33915 ft | 425 kts | 319° |
| 2026-04-26 15:14 | 32.63977 | 45.19417 | 33916 ft | 425 kts | 320° |
| 2026-04-26 15:15 | 32.68898 | 45.15534 | 33916 ft | 425 kts | 320° |
| 2026-04-26 15:15 | 32.73820 | 45.11634 | 33916 ft | 425 kts | 320° |
| 2026-04-26 15:16 | 32.78738 | 45.07724 | 33916 ft | 425 kts | 320° |
| 2026-04-26 15:16 | 32.83647 | 45.03815 | 33916 ft | 424 kts | 320° |
| 2026-04-26 15:17 | 32.87755 | 45.00538 | 33916 ft | 425 kts | 320° |
| 2026-04-26 15:17 | 32.93460 | 44.95981 | 33906 ft | 424 kts | 320° |
| 2026-04-26 15:18 | 32.98359 | 44.92061 | 33906 ft | 425 kts | 320° |
| 2026-04-26 15:18 | 33.03264 | 44.88133 | 33905 ft | 424 kts | 320° |
| 2026-04-26 15:19 | 33.08160 | 44.84203 | 33908 ft | 424 kts | 320° |
| 2026-04-26 15:19 | 33.13048 | 44.80279 | 33903 ft | 424 kts | 320° |
| 2026-04-26 15:20 | 33.17966 | 44.76379 | 33896 ft | 426 kts | 323° |
| 2026-04-26 15:20 | 33.22530 | 44.73998 | 33897 ft | 438 kts | 338° |
| 2026-04-26 15:21 | 33.29657 | 44.72966 | 33900 ft | 450 kts | 351° |
| 2026-04-26 15:21 | 33.34918 | 44.72791 | 33905 ft | 451 kts | 352° |
| 2026-04-26 15:22 | 33.41205 | 44.72672 | 33905 ft | 452 kts | 352° |
| 2026-04-26 15:22 | 33.47480 | 44.72520 | 33908 ft | 451 kts | 352° |
| 2026-04-26 15:23 | 33.53718 | 44.72335 | 33916 ft | 451 kts | 352° |
| 2026-04-26 15:23 | 33.59989 | 44.72138 | 33916 ft | 450 kts | 352° |
| 2026-04-26 15:24 | 33.66246 | 44.71938 | 33929 ft | 450 kts | 352° |
| 2026-04-26 15:24 | 33.72509 | 44.71739 | 33933 ft | 450 kts | 352° |
| 2026-04-26 15:25 | 33.78772 | 44.71542 | 33936 ft | 450 kts | 352° |
| 2026-04-26 15:25 | 33.85023 | 44.71344 | 33950 ft | 450 kts | 352° |
| 2026-04-26 15:26 | 33.91290 | 44.71147 | 33949 ft | 450 kts | 352° |
| 2026-04-26 15:26 | 33.97546 | 44.70946 | 33965 ft | 450 kts | 352° |
| 2026-04-26 15:27 | 34.03794 | 44.70749 | 33962 ft | 449 kts | 353° |
| 2026-04-26 15:27 | 34.10050 | 44.70550 | 33971 ft | 450 kts | 353° |
| 2026-04-26 15:28 | 34.16312 | 44.70351 | 33978 ft | 450 kts | 353° |
| 2026-04-26 15:28 | 34.22570 | 44.70152 | 33981 ft | 450 kts | 353° |
| 2026-04-26 15:29 | 34.28822 | 44.69953 | 33982 ft | 450 kts | 353° |
| 2026-04-26 15:30 | 34.41340 | 44.69554 | 33990 ft | 450 kts | 353° |
| 2026-04-26 15:30 | 34.47607 | 44.69333 | 33987 ft | 449 kts | 350° |
| 2026-04-26 15:31 | 34.56431 | 44.66574 | 33999 ft | 437 kts | 334° |
| 2026-04-26 15:32 | 34.63953 | 44.62982 | 34000 ft | 436 kts | 333° |
| 2026-04-26 15:32 | 34.70540 | 44.59756 | 34000 ft | 436 kts | 333° |
| 2026-04-26 15:33 | 34.76173 | 44.57021 | 33997 ft | 436 kts | 333° |
| 2026-04-26 15:33 | 34.81820 | 44.54292 | 33999 ft | 437 kts | 333° |
| 2026-04-26 15:34 | 34.87438 | 44.51575 | 33999 ft | 437 kts | 333° |
| 2026-04-26 15:34 | 34.93093 | 44.48837 | 34001 ft | 438 kts | 333° |
| 2026-04-26 15:35 | 34.98752 | 44.46090 | 33999 ft | 438 kts | 333° |
| 2026-04-26 15:35 | 35.04418 | 44.43339 | 33997 ft | 438 kts | 333° |
| 2026-04-26 15:36 | 35.10080 | 44.40584 | 33989 ft | 438 kts | 333° |
| 2026-04-26 15:36 | 35.15755 | 44.37818 | 33990 ft | 439 kts | 333° |
| 2026-04-26 15:37 | 35.21432 | 44.35051 | 33990 ft | 439 kts | 333° |
| 2026-04-26 15:37 | 35.27108 | 44.32274 | 33989 ft | 440 kts | 333° |
| 2026-04-26 15:38 | 35.32769 | 44.29429 | 33990 ft | 439 kts | 333° |
| 2026-04-26 15:38 | 35.38405 | 44.26520 | 33989 ft | 440 kts | 333° |
| 2026-04-26 15:39 | 35.44044 | 44.23602 | 33988 ft | 440 kts | 333° |
| 2026-04-26 15:39 | 35.48735 | 44.21178 | 33990 ft | 440 kts | 333° |
| 2026-04-26 15:40 | 35.55306 | 44.17781 | 34000 ft | 441 kts | 333° |
| 2026-04-26 15:40 | 35.60966 | 44.14857 | 34000 ft | 441 kts | 333° |
| 2026-04-26 15:41 | 35.66628 | 44.11927 | 34000 ft | 441 kts | 333° |
| 2026-04-26 15:41 | 35.72288 | 44.08992 | 34000 ft | 442 kts | 333° |
| 2026-04-26 15:42 | 35.77951 | 44.06051 | 34009 ft | 441 kts | 333° |
| 2026-04-26 15:42 | 35.83615 | 44.03104 | 34009 ft | 442 kts | 333° |
| 2026-04-26 15:43 | 35.89287 | 44.00146 | 34019 ft | 442 kts | 333° |
| 2026-04-26 15:44 | 35.97781 | 43.95711 | 34021 ft | 442 kts | 333° |
| 2026-04-26 15:44 | 36.06240 | 43.91279 | 34022 ft | 442 kts | 333° |
| 2026-04-26 15:45 | 36.14734 | 43.86824 | 34014 ft | 442 kts | 333° |
| 2026-04-26 15:46 | 36.23237 | 43.82356 | 34016 ft | 442 kts | 333° |
| 2026-04-26 15:46 | 36.27947 | 43.79878 | 34025 ft | 443 kts | 333° |
| 2026-04-26 15:47 | 36.37436 | 43.74955 | 34031 ft | 443 kts | 333° |
| 2026-04-26 15:48 | 36.43137 | 43.72006 | 34027 ft | 444 kts | 333° |
| 2026-04-26 15:48 | 36.48841 | 43.69046 | 34028 ft | 445 kts | 333° |
| 2026-04-26 15:49 | 36.54553 | 43.66075 | 34033 ft | 445 kts | 333° |
| 2026-04-26 15:49 | 36.60271 | 43.63096 | 34049 ft | 446 kts | 333° |
| 2026-04-26 15:50 | 36.65996 | 43.60106 | 34044 ft | 446 kts | 333° |
| 2026-04-26 15:50 | 36.71694 | 43.57131 | 34054 ft | 447 kts | 333° |
| 2026-04-26 15:51 | 36.77414 | 43.54082 | 34059 ft | 447 kts | 332° |
| 2026-04-26 15:51 | 36.83090 | 43.50913 | 34065 ft | 447 kts | 332° |
| 2026-04-26 15:52 | 36.88773 | 43.47713 | 34071 ft | 448 kts | 332° |
| 2026-04-26 15:52 | 36.94459 | 43.44515 | 34084 ft | 448 kts | 332° |
| 2026-04-26 15:53 | 37.00158 | 43.41319 | 34080 ft | 449 kts | 332° |
| 2026-04-26 15:53 | 37.05867 | 43.38114 | 34089 ft | 450 kts | 332° |
| 2026-04-26 15:54 | 37.11547 | 43.34920 | 34096 ft | 450 kts | 332° |
| 2026-04-26 15:54 | 37.17262 | 43.31701 | 34093 ft | 451 kts | 332° |
| 2026-04-26 15:55 | 37.22993 | 43.28468 | 34096 ft | 452 kts | 332° |
| 2026-04-26 15:55 | 37.28732 | 43.25225 | 34090 ft | 452 kts | 332° |
| 2026-04-26 15:56 | 37.33990 | 43.21090 | 34089 ft | 442 kts | 314° |
| 2026-04-26 15:56 | 37.36095 | 43.18316 | 34086 ft | 437 kts | 303° |
| 2026-04-26 15:56 | 37.37781 | 43.15171 | 34080 ft | 433 kts | 297° |
| 2026-04-26 15:57 | 37.40733 | 43.08564 | 34066 ft | 433 kts | 294° |
| 2026-04-26 15:57 | 37.43533 | 43.01850 | 34062 ft | 433 kts | 294° |
| 2026-04-26 15:58 | 37.46319 | 42.95176 | 34062 ft | 434 kts | 294° |
| 2026-04-26 15:58 | 37.49153 | 42.88458 | 34058 ft | 435 kts | 294° |
| 2026-04-26 15:59 | 37.52005 | 42.81727 | 34052 ft | 435 kts | 294° |
| 2026-04-26 15:59 | 37.54852 | 42.74992 | 34048 ft | 436 kts | 294° |
| 2026-04-26 16:00 | 37.57703 | 42.68228 | 34058 ft | 437 kts | 293° |
| 2026-04-26 16:00 | 37.60559 | 42.61448 | 34055 ft | 438 kts | 293° |
| 2026-04-26 16:01 | 37.63420 | 42.54657 | 34055 ft | 439 kts | 293° |
| 2026-04-26 16:01 | 37.66282 | 42.47847 | 34046 ft | 440 kts | 293° |
| 2026-04-26 16:02 | 37.69126 | 42.41059 | 34038 ft | 441 kts | 293° |
| 2026-04-26 16:02 | 37.71990 | 42.34211 | 34048 ft | 441 kts | 293° |